Honey Creek, WI

7:09 PM CST on November 23, 2014 (GMT -0600)
Rochester, WI | Change Station
CLOSE
Current Station
Personal Weather Station
Location: Rochester, WI
Elevation: 780 ft
Nearby Weather Stations
Active Advisory: Winter Weather Advisory

Elev 780 ft 42.74 °N, 88.24 °W | Updated 4 seconds ago

Rain
Rain
47.1 °F
Feels Like 47 °F
N
2.2
Wind Variable Wind from ESE
Gusts 6.0 mph

Today
High -- | Low -- °F
--% Chance of Precip.
Yesterday
High -- | Low -- °F
Precip. -- in
6:54 AM 4:24 PM
Waxing Crescent, 3% visible
Pressure 29.32 in
Visibility 3.0 miles
Clouds Overcast 400 ft
Windchill 47 °F
Dew Point 45 °F
Humidity 92%
Rainfall 0.25 in
Snow Depth Not available.
UV 0 out of 12
Pollen .10 out of 12
Air Quality Not available.
Flu Activity Not available.
METAR KBUU 240055Z AUTO 11004KT 3SM -RA OVC004 07/07 A2932 RMK AO2 P0004 T00710071

More Conditions Fewer Conditions

Pressure 29.32 in
Visibility 3.0 miles
Clouds Overcast 400 ft
Windchill 47 °F
Dew Point 45 °F
Humidity 92%
Rainfall 0.25 in
Snow Depth Not available.
UV 0 out of 12
Pollen .10 out of 12
Air Quality Not available.
Flu Activity Not available.
METAR KBUU 240055Z AUTO 11004KT 3SM -RA OVC004 07/07 A2932 RMK AO2 P0004 T00710071

More Conditions Fewer Conditions

10-Day Weather Forecast

Almanac

Astronomy

Nov. 23, 2014 Rise Set
Actual Time
Civil Twilight
Nautical Twilight
Astronomical Twilight
Moon
Length of Visible Light
Length of Day
Tomorrow will be .
, % of the Moon is Illuminated

Today's Extremes

State Highs State Lows

Community

WunderPhotos

Upload Photos

1,773,232 photos uploaded!

WunderBlogs® & News

Nearby

Air Quality

  Air Quality AQ Index Pollutant
Not available.

Snow Depth

Station Depth Elevation

Earthquake Activity

City Distance Mag. Time & Date
Minimum magnitude displayed is 2.5.

Coastal Water Temperatures

Place Temperature

Nearby Weather Stations